Time;durP1;ratioP1;P1;durP2;ratioP2;P2;SDS_P1;SDS_P2;PMS_P1;PMS_P2;Temp;Humidity;BMP_temperature;BMP_pressure;BME280_temperature;BME280_humidity;BME280_pressure;Samples;Min_cycle;Max_cycle;Signal;HPM_P1;HPM_P2
2022/10/03 00:00:12;;;;;;;2.65;1.05;;;;;;;12.19;80.10;100395.61;1768156;79;21039;-90
2022/10/03 00:03:15;;;;;;;3.22;1.05;;;;;;;12.21;80.06;100403.55;1745398;80;21054;-90
2022/10/03 00:06:08;;;;;;;5.83;1.45;;;;;;;12.24;80.10;100400.97;1741251;80;21853;-84
2022/10/03 00:09:04;;;;;;;2.42;1.12;;;;;;;12.28;80.10;100404.53;1759487;80;21540;-84
2022/10/03 00:11:53;;;;;;;3.98;1.40;;;;;;;12.30;80.06;100397.08;1749361;78;21082;-86
2022/10/03 00:14:45;;;;;;;5.30;1.10;;;;;;;12.28;79.99;100395.30;1743535;80;21070;-84
2022/10/03 00:17:51;;;;;;;1.67;1.20;;;;;;;12.25;80.00;100394.36;1743606;80;21560;-91
2022/10/03 00:20:48;;;;;;;4.15;1.10;;;;;;;12.24;80.03;100395.25;1757285;80;21759;-84
2022/10/03 00:23:34;;;;;;;3.40;1.07;;;;;;;12.23;80.10;100392.58;1744102;80;21031;-89
2022/10/03 00:26:27;;;;;;;1.50;0.98;;;;;;;12.22;80.15;100396.11;1760398;80;20999;-90
2022/10/03 00:28:49;;;;;;;1.67;1.10;;;;;;;12.20;80.15;100388.16;1788476;79;22295;-90
2022/10/03 00:31:21;;;;;;;3.22;1.30;;;;;;;12.16;80.11;100398.23;1755888;79;21779;-85
2022/10/03 00:33:56;;;;;;;2.40;1.10;;;;;;;12.12;80.13;100395.52;1741195;80;21237;-89
2022/10/03 00:36:51;;;;;;;2.42;1.10;;;;;;;12.09;80.27;100396.78;1757849;80;21627;-85
2022/10/03 00:39:26;;;;;;;3.75;1.05;;;;;;;12.08;80.38;100391.95;1773321;80;21518;-84
2022/10/03 00:42:30;;;;;;;3.80;1.15;;;;;;;12.09;80.49;100391.09;1772128;80;21109;-90
2022/10/03 00:45:28;;;;;;;5.85;1.25;;;;;;;12.09;80.55;100385.82;1762068;80;27326;-90
2022/10/03 00:48:35;;;;;;;2.55;1.02;;;;;;;12.12;80.63;100385.84;1754433;80;22529;-83
2022/10/03 00:51:26;;;;;;;1.55;0.90;;;;;;;12.10;80.60;100388.89;1773975;79;21068;-83
2022/10/03 00:54:04;;;;;;;1.77;0.98;;;;;;;12.13;80.65;100385.43;1767778;79;21098;-83
2022/10/03 00:56:46;;;;;;;2.77;1.05;;;;;;;12.13;80.63;100388.95;1757737;80;20996;-89
2022/10/03 00:59:36;;;;;;;2.40;1.22;;;;;;;12.15;80.69;100389.85;1778910;80;21101;-89
2022/10/03 01:02:43;;;;;;;4.40;1.20;;;;;;;12.16;80.71;100380.17;1760626;81;21667;-90
2022/10/03 01:06:00;;;;;;;2.05;0.98;;;;;;;12.17;80.69;100379.32;1728458;81;21118;-84
2022/10/03 01:09:05;;;;;;;5.67;1.42;;;;;;;12.18;80.67;100375.80;1745119;80;21094;-91
2022/10/03 01:11:37;;;;;;;4.72;1.00;;;;;;;12.20;80.70;100378.93;1739635;80;21836;-84
2022/10/03 01:14:16;;;;;;;2.60;0.95;;;;;;;12.18;80.56;100371.43;1682270;84;21300;-91
2022/10/03 01:17:18;;;;;;;4.97;1.37;;;;;;;12.13;80.52;100376.20;1707824;83;22158;-90
2022/10/03 01:20:15;;;;;;;2.15;1.32;;;;;;;12.09;80.58;100377.91;1740282;80;21104;-90
2022/10/03 01:23:11;;;;;;;5.78;1.42;;;;;;;12.06;80.70;100376.54;1736413;82;21410;-84
2022/10/03 01:25:51;;;;;;;3.72;1.10;;;;;;;12.08;80.82;100368.20;1764918;81;21351;-89
2022/10/03 01:32:00;;;;;;;4.30;1.20;;;;;;;11.98;80.58;100367.66;1735068;81;21828;-91
2022/10/03 01:34:43;;;;;;;2.27;1.22;;;;;;;11.87;80.55;100372.73;1729466;81;21042;-85
2022/10/03 01:37:59;;;;;;;2.65;1.30;;;;;;;11.77;80.59;100380.05;1760658;80;21016;-85
2022/10/03 01:40:37;;;;;;;6.03;1.30;;;;;;;11.70;80.72;100378.22;1752779;80;21380;-85
2022/10/03 01:43:44;;;;;;;1.70;1.00;;;;;;;11.63;80.96;100378.11;1748772;81;21067;-94
2022/10/03 01:46:27;;;;;;;3.05;1.30;;;;;;;11.66;81.26;100373.33;1762126;80;22549;-93
2022/10/03 01:49:12;;;;;;;2.45;1.00;;;;;;;11.75;81.40;100369.92;1775025;79;21027;-85
2022/10/03 01:52:20;;;;;;;0.93;0.82;;;;;;;11.81;81.42;100373.98;1785064;78;21039;-86
2022/10/03 01:54:58;;;;;;;2.20;1.17;;;;;;;11.88;81.46;100370.57;1763412;80;21007;-94
2022/10/03 01:57:36;;;;;;;2.33;1.20;;;;;;;11.93;81.32;100378.56;1800819;79;21125;-92
2022/10/03 02:00:23;;;;;;;2.75;1.17;;;;;;;11.94;81.18;100373.31;1736941;80;21940;-86
2022/10/03 02:03:13;;;;;;;2.35;1.15;;;;;;;11.93;81.00;100374.61;1785758;79;21066;-91
2022/10/03 02:06:20;;;;;;;5.60;1.32;;;;;;;11.90;80.99;100372.83;1760656;80;21043;-90
2022/10/03 02:08:58;;;;;;;3.20;1.10;;;;;;;11.94;81.08;100382.98;1741771;80;21082;-83
2022/10/03 02:11:52;;;;;;;3.72;1.67;;;;;;;11.98;81.14;100380.40;1741898;80;21541;-89
2022/10/03 02:14:33;;;;;;;2.17;1.30;;;;;;;12.05;81.12;100380.94;1742022;80;21274;-90
2022/10/03 02:17:44;;;;;;;2.45;1.52;;;;;;;12.11;81.12;100378.81;1739819;80;21640;-89
2022/10/03 02:20:37;;;;;;;4.87;1.40;;;;;;;12.16;81.03;100376.22;1754693;80;21063;-86
2022/10/03 02:23:35;;;;;;;2.85;1.70;;;;;;;12.17;81.00;100378.88;1775927;80;21627;-85
2022/10/03 02:26:21;;;;;;;4.83;1.45;;;;;;;12.19;80.99;100384.18;1743422;80;21505;-85
2022/10/03 02:29:21;;;;;;;2.12;1.27;;;;;;;12.20;81.03;100380.66;1743581;80;22530;-91
2022/10/03 02:32:30;;;;;;;2.20;1.30;;;;;;;12.19;80.98;100392.97;1697938;83;21580;-90
2022/10/03 02:35:23;;;;;;;4.33;1.62;;;;;;;12.19;81.01;100395.61;1690182;84;21273;-84
2022/10/03 02:38:18;;;;;;;5.28;1.40;;;;;;;12.17;81.08;100391.20;1748886;80;21023;-91
2022/10/03 02:41:41;;;;;;;2.42;1.05;;;;;;;12.15;81.14;100389.85;1743511;82;21066;-90
2022/10/03 02:44:31;;;;;;;1.52;1.00;;;;;;;12.13;81.19;100393.34;1752018;80;21775;-88
2022/10/03 02:47:18;;;;;;;3.85;1.12;;;;;;;12.11;81.22;100401.23;1774765;80;21039;-88
2022/10/03 02:50:25;;;;;;;4.10;2.00;;;;;;;12.07;81.29;100409.98;1763113;80;21568;-89
2022/10/03 02:57:38;;;;;;;3.62;1.20;;;;;;;12.06;81.54;100405.11;1766539;79;21030;-90
2022/10/03 03:00:35;;;;;;;1.87;1.00;;;;;;;12.12;81.60;100411.34;1718272;80;41746;-85
2022/10/03 03:03:39;;;;;;;2.62;1.32;;;;;;;12.14;81.56;100423.69;1773631;79;21059;-90
2022/10/03 03:06:51;;;;;;;2.65;1.30;;;;;;;12.15;81.65;100416.23;1707983;80;21019;-86
2022/10/03 03:09:54;;;;;;;4.15;1.52;;;;;;;12.19;81.64;100421.13;1730193;82;21109;-89
2022/10/03 03:12:56;;;;;;;2.45;1.40;;;;;;;12.19;81.72;100420.68;1761023;80;21016;-90
2022/10/03 03:16:03;;;;;;;6.00;1.98;;;;;;;12.20;81.71;100426.84;1765881;79;21758;-89
2022/10/03 03:19:00;;;;;;;3.08;1.80;;;;;;;12.18;81.77;100428.16;1745605;79;21581;-87
2022/10/03 03:21:49;;;;;;;3.55;1.62;;;;;;;12.15;81.80;100438.66;1747698;80;21043;-89
2022/10/03 03:24:22;;;;;;;2.58;1.65;;;;;;;12.15;81.83;100432.06;1783571;80;21015;-84
2022/10/03 03:27:27;;;;;;;4.22;1.92;;;;;;;12.14;81.81;100442.16;1756492;80;21074;-84
2022/10/03 03:30:11;;;;;;;3.87;2.70;;;;;;;12.07;81.65;100437.69;1786516;78;22102;-90
2022/10/03 03:32:46;;;;;;;4.75;2.35;;;;;;;12.01;81.66;100454.31;1759195;80;21105;-88
2022/10/03 03:35:44;;;;;;;4.42;2.80;;;;;;;11.95;81.57;100459.47;1755134;79;21027;-89
2022/10/03 03:39:01;;;;;;;4.80;2.90;;;;;;;11.84;81.54;100471.17;1757253;79;21341;-89
2022/10/03 03:41:39;;;;;;;5.55;3.25;;;;;;;11.76;81.67;100467.95;1763917;80;21044;-83
2022/10/03 03:44:47;;;;;;;6.20;2.98;;;;;;;11.66;81.75;100462.53;1745722;80;22423;-84
2022/10/03 03:47:49;;;;;;;5.42;3.20;;;;;;;11.59;81.76;100464.61;1750139;80;21572;-83
2022/10/03 03:50:24;;;;;;;5.65;3.60;;;;;;;11.52;81.83;100468.44;1787309;79;21018;-83
2022/10/03 03:53:27;;;;;;;6.33;3.50;;;;;;;11.46;81.87;100464.83;1745533;80;21063;-89
2022/10/03 03:56:37;;;;;;;5.83;3.60;;;;;;;11.41;81.77;100466.53;1773956;80;21702;-83
2022/10/03 03:59:21;;;;;;;5.95;3.40;;;;;;;11.34;81.82;100479.13;1776756;80;21757;-88
2022/10/03 04:01:56;;;;;;;8.20;4.10;;;;;;;11.27;81.96;100475.48;1746905;80;21039;-84
2022/10/03 04:04:47;;;;;;;7.90;3.80;;;;;;;11.24;81.98;100490.35;1744910;80;21081;-87
2022/10/03 04:07:31;;;;;;;6.45;3.65;;;;;;;11.22;82.09;100489.03;1740244;82;21130;-88
2022/10/03 04:10:37;;;;;;;8.23;4.00;;;;;;;11.25;82.33;100489.06;1760779;80;21042;-85
2022/10/03 04:13:30;;;;;;;6.35;3.85;;;;;;;11.29;82.42;100500.11;1784959;78;21748;-85
2022/10/03 04:19:28;;;;;;;6.33;4.53;;;;;;;11.43;82.48;100500.78;1756812;80;21063;-84
2022/10/03 04:22:29;;;;;;;7.58;3.95;;;;;;;11.48;82.48;100511.86;1773466;79;21078;-87
2022/10/03 04:25:19;;;;;;;7.72;4.10;;;;;;;11.56;82.45;100508.48;1773367;80;21293;-86
2022/10/03 04:28:21;;;;;;;6.47;3.98;;;;;;;11.61;82.38;100511.66;1762272;79;22568;-84
2022/10/03 04:31:40;;;;;;;7.72;4.22;;;;;;;11.66;82.36;100512.63;1771112;80;21058;-84
2022/10/03 04:34:38;;;;;;;8.48;4.40;;;;;;;11.74;82.34;100524.61;1688868;84;21601;-87
2022/10/03 04:37:35;;;;;;;7.92;3.58;;;;;;;11.81;82.22;100519.90;1773159;80;21110;-88
2022/10/03 04:40:22;;;;;;;9.43;3.60;;;;;;;11.85;82.07;100528.75;1769492;79;21014;-86
2022/10/03 04:43:00;;;;;;;6.08;4.12;;;;;;;11.90;81.94;100526.20;1767943;80;22277;-88
2022/10/03 04:45:44;;;;;;;6.37;4.10;;;;;;;11.94;81.89;100528.06;1781817;80;21090;-89
2022/10/03 04:48:33;;;;;;;4.40;3.52;;;;;;;11.97;81.84;100549.19;1752246;80;21584;-87
2022/10/03 04:51:16;;;;;;;4.95;3.67;;;;;;;12.00;81.71;100537.38;1767826;80;21082;-81
2022/10/03 04:54:17;;;;;;;6.67;3.90;;;;;;;12.02;81.62;100542.24;1763920;80;21035;-88
2022/10/03 04:56:58;;;;;;;5.87;3.37;;;;;;;12.00;81.54;100551.89;1760187;80;22657;-87
2022/10/03 04:59:51;;;;;;;7.92;4.28;;;;;;;12.02;81.39;100547.08;1771617;79;21023;-86
2022/10/03 05:02:57;;;;;;;4.33;3.45;;;;;;;12.00;81.36;100555.41;1719106;81;21035;-85
2022/10/03 05:05:33;;;;;;;4.70;3.62;;;;;;;12.01;81.30;100545.32;1742651;80;21048;-87
2022/10/03 05:08:08;;;;;;;5.35;3.92;;;;;;;12.01;81.20;100563.78;1699174;83;21521;-82
2022/10/03 05:11:14;;;;;;;7.20;3.60;;;;;;;12.03;81.18;100557.19;1742448;80;22683;-81
2022/10/03 05:14:02;;;;;;;6.50;3.72;;;;;;;12.02;81.08;100566.86;1728321;80;21056;-83
2022/10/03 05:17:00;;;;;;;7.20;4.12;;;;;;;12.04;81.08;100566.45;1748947;80;21039;-83
2022/10/03 05:19:50;;;;;;;5.35;4.00;;;;;;;12.08;81.02;100576.63;1774258;79;21068;-84
2022/10/03 05:22:48;;;;;;;6.37;4.30;;;;;;;12.08;80.88;100573.11;1758551;80;21325;-85
2022/10/03 05:25:24;;;;;;;10.00;5.20;;;;;;;12.10;80.88;100588.09;1763918;80;22636;-87
2022/10/03 05:27:59;;;;;;;8.18;5.72;;;;;;;12.13;80.77;100596.51;1745740;80;21043;-83
2022/10/03 05:30:43;;;;;;;5.30;4.37;;;;;;;12.12;80.58;100596.91;1764145;79;21047;-87
2022/10/03 05:33:28;;;;;;;8.95;4.70;;;;;;;12.11;80.42;100589.87;1763883;80;21063;-83
2022/10/03 05:36:08;;;;;;;7.75;4.83;;;;;;;12.12;80.25;100602.19;1765486;80;21078;-87
2022/10/03 05:39:13;;;;;;;8.88;5.33;;;;;;;12.17;80.21;100599.64;1773821;80;21753;-84
2022/10/03 05:41:40;;;;;;;17.92;5.70;;;;;;;12.21;80.22;100604.98;1763224;80;21553;-82
2022/10/03 05:44:16;;;;;;;7.78;5.28;;;;;;;12.27;79.98;100607.27;1754945;80;21118;-82
2022/10/03 05:46:59;;;;;;;6.65;5.08;;;;;;;12.29;79.92;100605.09;1762677;80;21058;-83
2022/10/03 05:49:57;;;;;;;7.58;5.17;;;;;;;12.29;79.80;100606.41;1773577;79;21531;-82
2022/10/03 05:52:58;;;;;;;7.92;5.40;;;;;;;12.29;79.58;100637.20;1770047;79;21749;-84
2022/10/03 05:55:36;;;;;;;8.13;5.08;;;;;;;12.28;79.46;100622.25;1765692;80;21055;-84
2022/10/03 05:58:40;;;;;;;8.78;4.95;;;;;;;12.29;79.22;100644.69;1774936;79;21091;-88
2022/10/03 06:01:39;;;;;;;7.62;5.33;;;;;;;12.33;79.11;100641.27;1750961;79;20975;-84
2022/10/03 06:04:27;;;;;;;9.58;5.10;;;;;;;12.38;78.88;100651.44;1742365;80;21269;-84
2022/10/03 06:07:39;;;;;;;8.55;5.17;;;;;;;12.43;78.67;100651.52;1742334;80;22539;-84
2022/10/03 06:10:43;;;;;;;10.72;4.72;;;;;;;12.43;78.55;100646.25;1741846;80;21718;-83
2022/10/03 06:13:18;;;;;;;9.43;5.05;;;;;;;12.48;78.43;100644.98;1742892;80;21075;-83
2022/10/03 06:16:06;;;;;;;6.05;4.53;;;;;;;12.51;78.11;100671.00;1742403;80;21082;-83
2022/10/03 06:18:41;;;;;;;8.43;4.05;;;;;;;12.53;77.91;100666.63;1742258;80;21636;-83
2022/10/03 06:21:31;;;;;;;7.55;4.55;;;;;;;12.52;77.62;100676.75;1741827;81;21089;-87
2022/10/03 06:24:40;;;;;;;7.25;4.60;;;;;;;12.52;77.51;100711.48;1742019;80;21050;-87
2022/10/03 06:27:30;;;;;;;10.40;4.60;;;;;;;12.52;77.38;100696.97;1751023;80;21066;-87
2022/10/03 06:30:26;;;;;;;8.75;4.30;;;;;;;12.53;77.17;100723.84;1749166;79;21082;-83
2022/10/03 06:33:36;;;;;;;8.75;4.22;;;;;;;12.56;77.10;100708.94;1741731;80;21125;-82
2022/10/03 06:36:27;;;;;;;5.90;3.47;;;;;;;12.66;76.91;100699.84;1740621;80;21769;-83
2022/10/03 06:39:35;;;;;;;5.10;3.30;;;;;;;12.69;76.66;100700.78;1742497;80;21047;-84
2022/10/03 06:42:16;;;;;;;6.45;3.60;;;;;;;12.71;76.37;100712.25;1742778;80;21118;-87
2022/10/03 06:44:57;;;;;;;6.65;3.05;;;;;;;12.79;76.30;100713.25;1742802;80;21540;-87
2022/10/03 06:48:03;;;;;;;4.85;2.92;;;;;;;12.86;75.86;100728.78;1742734;80;21054;-86
2022/10/03 06:50:56;;;;;;;5.70;3.55;;;;;;;12.87;75.55;100732.30;1742908;80;21749;-83
2022/10/03 06:54:00;;;;;;;9.77;2.83;;;;;;;12.81;75.49;100733.97;1751686;79;21623;-87
2022/10/03 06:56:39;;;;;;;;;;;;;;;12.92;75.47;100743.39;1761435;79;21086;-83
2022/10/03 06:59:44;;;;;;;7.62;2.70;;;;;;;13.05;75.21;100744.47;1762589;80;21084;-87
2022/10/03 07:02:41;;;;;;;5.90;2.10;;;;;;;13.10;75.00;100758.64;1742505;80;21552;-83
2022/10/03 07:05:42;;;;;;;4.60;1.98;;;;;;;13.12;73.95;100770.13;1742387;80;21707;-87
2022/10/03 07:08:20;;;;;;;4.80;1.70;;;;;;;13.22;74.16;100781.72;1689868;83;21077;-82
2022/10/03 07:11:02;;;;;;;4.75;1.95;;;;;;;13.44;73.80;100774.10;1694449;83;21081;-86
2022/10/03 07:14:13;;;;;;;2.72;1.65;;;;;;;13.63;73.28;100773.91;1694947;83;21138;-83
2022/10/03 07:17:32;;;;;;;3.22;1.60;;;;;;;13.78;72.69;100775.45;1682546;83;21101;-87
2022/10/03 07:20:38;;;;;;;3.30;1.75;;;;;;;13.85;72.02;100783.92;1681951;83;21769;-83
2022/10/03 07:24:02;;;;;;;5.28;2.05;;;;;;;14.00;72.12;100783.19;1682039;85;21414;-87
2022/10/03 07:27:04;;;;;;;4.10;1.40;;;;;;;14.14;71.76;100807.19;1679986;83;21130;-87
2022/10/03 07:29:49;;;;;;;7.22;1.85;;;;;;;14.22;71.29;100812.12;1669248;83;21613;-87
2022/10/03 07:32:30;;;;;;;2.83;1.52;;;;;;;14.36;71.46;100806.55;1662686;83;21071;-87
2022/10/03 07:38:57;;;;;;;3.60;1.57;;;;;;;14.57;70.51;100810.31;1682345;83;21101;-86
2022/10/03 07:41:47;;;;;;;3.55;1.77;;;;;;;14.67;70.86;100807.31;1682096;85;21125;-87
2022/10/03 07:44:52;;;;;;;1.95;1.50;;;;;;;14.74;69.96;100831.22;1669583;83;21117;-87
2022/10/03 07:47:56;;;;;;;6.53;1.72;;;;;;;14.66;70.26;100820.09;1751243;79;21027;-86
2022/10/03 07:51:00;;;;;;;4.90;1.50;;;;;;;14.61;69.82;100812.56;1747557;79;21945;-85
2022/10/03 07:53:56;;;;;;;6.83;1.75;;;;;;;14.51;69.71;100808.91;1754226;80;21054;-89
2022/10/03 07:56:52;;;;;;;2.47;1.60;;;;;;;14.39;69.50;100829.06;1765394;79;21125;-84
2022/10/03 07:59:52;;;;;;;4.33;1.80;;;;;;;14.20;69.66;100813.42;1747939;79;21452;-83
2022/10/03 08:03:05;;;;;;;3.85;1.60;;;;;;;14.13;69.69;100822.59;1747636;79;21431;-87
2022/10/03 08:06:08;;;;;;;2.42;1.42;;;;;;;13.96;69.78;100836.95;1748421;79;21751;-88
2022/10/03 08:08:58;;;;;;;2.87;1.60;;;;;;;13.83;69.98;100835.91;1734894;80;21090;-83
2022/10/03 08:11:42;;;;;;;5.03;2.20;;;;;;;13.75;70.21;100837.57;1747055;79;21047;-83
2022/10/03 08:14:44;;;;;;;6.40;2.00;;;;;;;13.72;70.58;100855.62;1762477;80;20976;-86
2022/10/03 08:17:25;;;;;;;7.37;2.55;;;;;;;13.75;70.68;100850.80;1747933;80;21094;-87
2022/10/03 08:20:25;;;;;;;5.97;2.47;;;;;;;13.70;70.73;100862.66;1747828;79;22563;-87
2022/10/03 08:23:26;;;;;;;6.12;2.65;;;;;;;13.66;70.76;100871.39;1747695;80;21074;-86
2022/10/03 08:26:17;;;;;;;7.50;2.37;;;;;;;13.58;70.73;100889.80;1747709;79;21098;-87
2022/10/03 08:29:08;;;;;;;5.78;2.17;;;;;;;13.48;71.08;100898.91;1747727;79;21046;-82
2022/10/03 08:31:59;;;;;;;7.62;1.72;;;;;;;13.41;71.33;100896.59;1747711;79;21078;-82
2022/10/03 08:34:46;;;;;;;5.35;2.12;;;;;;;13.28;71.37;100911.33;1748017;79;21853;-86
2022/10/03 08:37:35;;;;;;;5.95;1.80;;;;;;;13.07;71.31;100922.43;1747139;80;21027;-86
2022/10/03 08:40:33;;;;;;;8.73;2.65;;;;;;;13.00;71.60;100909.53;1747340;80;21073;-87
2022/10/03 08:43:47;;;;;;;6.03;1.98;;;;;;;13.07;72.00;100905.70;1747467;79;21079;-82
2022/10/03 08:46:36;;;;;;;4.08;1.82;;;;;;;13.21;71.97;100911.67;1747837;79;21313;-83
2022/10/03 08:49:18;;;;;;;4.28;1.90;;;;;;;13.19;71.79;100926.62;1747785;79;21776;-87
2022/10/03 08:52:20;;;;;;;5.62;1.90;;;;;;;13.15;71.92;100931.37;1747907;79;21058;-82
2022/10/03 08:55:25;;;;;;;6.25;2.15;;;;;;;13.15;73.60;100956.48;1756496;79;21135;-87
2022/10/03 08:58:32;;;;;;;3.83;1.70;;;;;;;12.51;76.09;100934.15;1747735;80;21050;-82
2022/10/03 09:01:29;;;;;;;4.60;1.67;;;;;;;11.71;77.22;100951.72;1750927;79;21031;-82
2022/10/03 09:04:20;;;;;;;2.70;1.55;;;;;;;11.38;79.03;100944.80;1765221;79;21763;-88
2022/10/03 09:07:01;;;;;;;6.17;2.25;;;;;;;11.38;80.41;100943.48;1747541;79;21200;-87
2022/10/03 09:09:56;;;;;;;4.55;2.05;;;;;;;11.46;80.86;100948.50;1742888;80;21052;-87
2022/10/03 09:12:41;;;;;;;3.83;1.90;;;;;;;11.56;80.11;100968.50;1758661;80;21066;-87
2022/10/03 09:15:47;;;;;;;3.42;1.87;;;;;;;11.68;78.97;100956.50;1631756;81;21733;-83
2022/10/03 09:18:39;;;;;;;3.50;2.00;;;;;;;11.81;78.00;100960.33;1741782;80;21794;-83
2022/10/03 09:21:26;;;;;;;3.27;1.60;;;;;;;12.04;78.07;100959.98;1742649;80;21071;-87
2022/10/03 09:23:59;;;;;;;3.42;1.80;;;;;;;12.25;77.72;100961.77;1742729;80;22071;-86
2022/10/03 09:26:56;;;;;;;5.47;2.25;;;;;;;12.19;76.75;100957.69;1742739;80;21097;-83
2022/10/03 09:29:40;;;;;;;4.03;2.10;;;;;;;12.12;76.66;100960.16;1742436;80;21565;-86
2022/10/03 09:32:30;;;;;;;3.05;1.60;;;;;;;12.12;76.64;100962.36;1703143;81;21773;-82
2022/10/03 09:35:46;;;;;;;2.87;1.80;;;;;;;12.21;76.63;100963.00;1718922;82;21638;-87
2022/10/03 09:38:52;;;;;;;2.60;1.60;;;;;;;12.35;76.69;100974.76;1718909;82;21160;-88
2022/10/03 09:42:04;;;;;;;1.75;1.55;;;;;;;12.62;76.71;100962.98;1719124;82;21634;-88
2022/10/03 09:45:10;;;;;;;5.97;1.95;;;;;;;13.15;76.91;100963.53;1719117;82;21116;-84
2022/10/03 09:48:03;;;;;;;9.43;4.22;;;;;;;13.47;75.77;100969.84;1719162;83;21753;-87
2022/10/03 09:51:13;;;;;;;9.05;5.65;;;;;;;13.41;75.10;100975.47;1695063;83;21097;-88
2022/10/03 09:54:11;;;;;;;6.97;2.45;;;;;;;13.44;75.26;100965.40;1718760;82;21238;-86
2022/10/03 09:56:46;;;;;;;4.50;1.80;;;;;;;13.59;75.00;100981.52;1718806;83;21162;-87
2022/10/03 09:59:52;;;;;;;5.97;3.00;;;;;;;13.65;74.57;100991.30;1720095;82;21007;-86
2022/10/03 10:02:46;;;;;;;4.55;2.67;;;;;;;13.66;74.42;100970.58;1719060;81;21686;-86
2022/10/03 10:05:41;;;;;;;5.35;1.75;;;;;;;13.74;74.24;100973.34;1718298;82;21070;-83
2022/10/03 10:08:47;;;;;;;3.87;1.67;;;;;;;13.86;74.07;100989.42;1704197;80;21069;-83
2022/10/03 10:12:00;;;;;;;4.50;2.20;;;;;;;14.18;74.02;100988.56;1748182;79;21590;-82
2022/10/03 10:14:50;;;;;;;4.45;2.65;;;;;;;14.62;73.37;100960.94;1747529;79;21536;-87
2022/10/03 10:18:05;;;;;;;5.53;2.17;;;;;;;14.87;72.62;100971.36;1747767;79;21764;-87
2022/10/03 10:21:04;;;;;;;;;;;;;;;15.01;72.46;100963.98;1750408;79;21086;-86
2022/10/03 10:23:51;;;;;;;5.70;2.00;;;;;;;15.04;71.94;100967.56;1747749;79;20516;-87
2022/10/03 10:26:44;;;;;;;3.47;1.40;;;;;;;14.89;70.89;100992.14;1767386;79;21474;-86
2022/10/03 10:29:37;;;;;;;3.08;1.60;;;;;;;14.67;70.17;100992.77;1760563;79;21007;-83
2022/10/03 10:32:34;;;;;;;2.90;1.82;;;;;;;14.49;69.95;100989.00;1749331;79;21712;-86
2022/10/03 10:35:34;;;;;;;3.62;1.80;;;;;;;14.44;70.08;100989.36;1748440;79;20980;-82
2022/10/03 10:38:47;;;;;;;4.60;2.22;;;;;;;14.24;70.38;100998.34;1747543;79;21074;-82
2022/10/03 10:41:38;;;;;;;5.33;2.12;;;;;;;13.93;70.60;101001.00;1746379;79;21110;-83
2022/10/03 10:44:53;;;;;;;8.55;4.58;;;;;;;13.65;71.37;101024.37;1747391;79;21054;-87
2022/10/03 10:47:41;;;;;;;;;;;;;;;13.37;72.01;101026.52;1750851;79;22544;-87
2022/10/03 10:50:33;;;;;;;4.03;2.30;;;;;;;12.96;75.42;101027.05;1768007;80;20186;-87
2022/10/03 10:53:41;;;;;;;3.20;2.12;;;;;;;12.58;76.15;101027.16;1766901;79;21042;-86
2022/10/03 10:56:53;;;;;;;3.80;1.92;;;;;;;12.56;76.01;101039.44;1769080;79;21074;-88
2022/10/03 10:59:55;;;;;;;2.80;2.00;;;;;;;12.58;75.97;101030.67;1740120;79;21085;-85
2022/10/03 11:03:01;;;;;;;3.90;2.00;;;;;;;12.76;75.85;101046.44;1747216;79;21748;-82
2022/10/03 11:05:46;;;;;;;5.62;2.05;;;;;;;12.82;75.83;101038.23;1747370;80;21043;-82
2022/10/03 11:08:30;;;;;;;3.50;1.95;;;;;;;12.71;75.23;101035.80;1699014;80;21103;-86
2022/10/03 11:11:52;;;;;;;16.02;3.20;;;;;;;12.59;75.03;101039.48;1738905;81;21039;-85
2022/10/03 11:14:30;;;;;;;3.67;2.22;;;;;;;12.56;75.59;101040.32;1742747;80;21630;-82
2022/10/03 11:17:23;;;;;;;2.77;1.67;;;;;;;12.66;75.55;101042.72;1742186;80;21694;-86
2022/10/03 11:20:24;;;;;;;5.00;2.00;;;;;;;12.74;75.60;101037.59;1744030;80;21047;-82
2022/10/03 11:23:32;;;;;;;3.40;1.77;;;;;;;12.86;75.65;101060.31;1740057;80;21078;-82
2022/10/03 11:26:22;;;;;;;3.45;1.92;;;;;;;13.04;75.38;101034.67;1742043;80;21114;-87
2022/10/03 11:29:41;;;;;;;4.83;1.65;;;;;;;13.27;74.91;101030.25;1741375;80;21126;-82
2022/10/03 11:32:35;;;;;;;2.58;1.57;;;;;;;13.43;74.35;101026.19;1742327;80;21785;-86
2022/10/03 11:35:28;;;;;;;1.73;1.50;;;;;;;13.65;73.45;101030.10;1742560;80;21082;-82
2022/10/03 11:38:12;;;;;;;4.37;1.83;;;;;;;13.80;72.64;101042.25;1742816;80;21114;-82
2022/10/03 11:40:56;;;;;;;2.40;1.55;;;;;;;13.98;72.14;101042.55;1742312;80;21062;-83
2022/10/03 11:43:46;;;;;;;2.92;1.92;;;;;;;14.21;71.85;101028.77;1742926;80;21583;-83
2022/10/03 11:46:45;;;;;;;5.55;1.82;;;;;;;14.22;71.46;101030.98;1742865;80;21771;-83
2022/10/03 11:49:46;;;;;;;5.80;1.90;;;;;;;14.07;71.43;101044.44;1742842;80;21074;-83
2022/10/03 11:52:51;;;;;;;2.80;2.00;;;;;;;13.72;72.01;101054.44;1742931;80;21071;-87
2022/10/03 11:55:34;;;;;;;4.20;1.92;;;;;;;13.20;72.37;101054.37;1742872;80;21058;-87
2022/10/03 11:58:37;;;;;;;5.80;2.90;;;;;;;12.83;73.84;101063.77;1748898;80;21129;-87
2022/10/03 12:01:40;;;;;;;4.28;2.52;;;;;;;12.32;76.03;101079.38;1749567;79;22544;-87
2022/10/03 12:04:36;;;;;;;3.67;2.77;;;;;;;11.89;76.25;101096.78;1742583;80;21559;-87
2022/10/03 12:10:19;;;;;;;3.37;2.33;;;;;;;12.00;76.84;101086.10;1745092;80;21058;-86
2022/10/03 12:12:51;;;;;;;4.67;2.40;;;;;;;12.02;77.08;101080.43;1768020;80;21078;-86
2022/10/03 12:15:50;;;;;;;9.00;2.20;;;;;;;12.12;76.96;101094.73;1757718;80;21713;-82
2022/10/03 12:18:43;;;;;;;6.15;2.30;;;;;;;12.27;76.89;101087.17;1746427;79;21091;-85
2022/10/03 12:21:30;;;;;;;4.28;2.00;;;;;;;12.39;76.96;101079.55;1747771;79;21054;-83
2022/10/03 12:24:23;;;;;;;3.42;2.12;;;;;;;12.43;76.92;101086.68;1766451;79;21073;-87
2022/10/03 12:27:04;;;;;;;2.70;2.00;;;;;;;12.48;76.89;101077.56;1754013;79;21559;-87
2022/10/03 12:29:34;;;;;;;2.50;1.60;;;;;;;12.56;76.94;101102.38;1747476;79;21745;-82
2022/10/03 12:32:23;;;;;;;5.30;1.92;;;;;;;12.63;76.94;101076.58;1748167;79;21047;-83
2022/10/03 12:35:10;;;;;;;3.22;2.00;;;;;;;12.73;76.95;101073.70;1722004;79;21055;-83
2022/10/03 12:38:15;;;;;;;1.92;1.52;;;;;;;12.84;76.52;101089.34;1701711;82;21100;-86
2022/10/03 12:41:05;;;;;;;4.25;1.92;;;;;;;12.95;76.09;101072.80;1700845;82;21474;-86
2022/10/03 12:44:08;;;;;;;3.00;1.85;;;;;;;13.10;76.04;101076.19;1701503;82;21769;-88
2022/10/03 12:46:40;;;;;;;4.08;1.65;;;;;;;13.33;75.68;101077.57;1701474;82;21104;-87
2022/10/03 12:49:27;;;;;;;2.95;1.77;;;;;;;13.69;75.05;101081.75;1702637;82;21037;-87
2022/10/03 12:51:57;;;;;;;2.83;1.57;;;;;;;13.98;74.78;101076.96;1701576;82;21475;-87
2022/10/03 12:54:47;;;;;;;3.58;1.70;;;;;;;14.36;73.53;101083.72;1679422;83;21094;-87
2022/10/03 12:57:46;;;;;;;2.67;1.57;;;;;;;14.53;72.85;101076.02;1691899;82;22596;-88
2022/10/03 13:00:23;;;;;;;1.72;1.37;;;;;;;14.71;72.47;101101.89;1701875;82;21593;-88
2022/10/03 13:03:33;;;;;;;3.40;1.92;;;;;;;14.62;70.97;101080.56;1701919;82;21080;-87
2022/10/03 13:06:19;;;;;;;3.60;1.82;;;;;;;14.52;70.29;101080.40;1702070;81;21073;-85
2022/10/03 13:09:12;;;;;;;3.00;1.80;;;;;;;14.45;70.49;101072.34;1675427;82;21107;-83
2022/10/03 13:12:12;;;;;;;3.20;1.65;;;;;;;14.35;69.52;101067.36;1688826;82;22732;-87
2022/10/03 13:15:07;;;;;;;2.65;1.57;;;;;;;14.20;69.16;101083.91;1704664;80;21433;-87
2022/10/03 13:17:51;;;;;;;2.05;1.55;;;;;;;14.13;69.24;101076.73;1721088;81;21456;-83
2022/10/03 13:20:38;;;;;;;2.20;1.60;;;;;;;14.06;69.06;101087.67;1727668;82;21051;-87
2022/10/03 13:23:23;;;;;;;4.08;2.00;;;;;;;14.00;68.61;101078.28;1706128;82;21666;-87
2022/10/03 13:26:24;;;;;;;4.87;1.87;;;;;;;13.93;68.62;101082.60;1706942;82;21745;-87
2022/10/03 13:29:28;;;;;;;3.25;2.10;;;;;;;13.91;68.66;101108.59;1706333;82;21042;-83
2022/10/03 13:32:25;;;;;;;4.10;2.02;;;;;;;13.83;68.21;101103.58;1676460;83;21106;-84
2022/10/03 13:38:15;;;;;;;2.27;2.08;;;;;;;13.66;68.09;101101.96;1658895;85;21179;-84
2022/10/03 13:40:48;;;;;;;2.45;2.10;;;;;;;13.56;68.21;101109.73;1656316;84;22333;-87
2022/10/03 13:43:18;;;;;;;2.27;2.08;;;;;;;13.51;68.58;101110.50;1642746;85;21106;-86
2022/10/03 13:45:47;;;;;;;3.45;2.20;;;;;;;13.49;68.58;101108.27;1655843;85;21124;-88
2022/10/03 13:48:20;;;;;;;2.90;1.95;;;;;;;13.49;68.64;101114.87;1634664;86;21110;-88